Time,TemperatureF,DewpointF,PressureIn,WindDirection,WindDirectionDegrees,WindSpeedMPH,WindSpeedGustMPH,Humidity,HourlyPrecipIn,Conditions,Clouds,dailyrainin,SoftwareType,DateUTC
2013-01-12 00:04:00,49.8,49.5,29.96,West,270,1.7,-999.0,99,-99.99,,,0.00,Acu-Link.com,2013-01-12 05:04:00,
2013-01-12 00:19:00,49.3,49.0,29.96,WSW,247,2.2,-999.0,99,-99.99,,,0.00,Acu-Link.com,2013-01-12 05:19:00,
2013-01-12 00:34:00,49.3,49.0,29.96,SW,225,2.7,-999.0,99,-99.99,,,0.00,Acu-Link.com,2013-01-12 05:34:00,
2013-01-12 00:50:00,49.3,49.0,29.96,NNE,22,2.2,-999.0,99,-99.99,,,0.00,Acu-Link.com,2013-01-12 05:50:00,
2013-01-12 01:05:00,48.9,48.6,29.96,NNE,22,2.2,-999.0,99,-99.99,,,0.00,Acu-Link.com,2013-01-12 06:05:00,
2013-01-12 01:20:00,49.6,49.3,29.96,NNE,22,1.1,-999.0,99,-99.99,,,0.00,Acu-Link.com,2013-01-12 06:20:00,
2013-01-12 01:35:00,49.3,49.0,29.96,SSW,202,0.0,-999.0,99,-99.99,,,0.00,Acu-Link.com,2013-01-12 06:35:00,
2013-01-12 01:51:00,48.9,48.6,29.96,SSW,202,0.0,-999.0,99,-99.99,,,0.00,Acu-Link.com,2013-01-12 06:51:00,
2013-01-12 02:06:00,48.9,48.6,29.97,NNE,22,0.0,-999.0,99,-99.99,,,0.00,Acu-Link.com,2013-01-12 07:06:00,
2013-01-12 02:21:00,48.4,48.1,29.98,NNE,22,0.0,-999.0,99,-99.99,,,0.00,Acu-Link.com,2013-01-12 07:21:00,
2013-01-12 02:37:00,47.5,47.2,29.97,ENE,67,0.0,-999.0,99,-99.99,,,0.00,Acu-Link.com,2013-01-12 07:37:00,
2013-01-12 02:52:00,47.7,47.4,29.98,NE,45,0.0,-999.0,99,-99.99,,,0.00,Acu-Link.com,2013-01-12 07:52:00,
2013-01-12 03:07:00,48.4,48.1,29.97,South,180,1.7,-999.0,99,-99.99,,,0.00,Acu-Link.com,2013-01-12 08:07:00,
2013-01-12 03:23:00,48.9,48.6,29.97,WNW,292,0.0,-999.0,99,-99.99,,,0.00,Acu-Link.com,2013-01-12 08:23:00,
2013-01-12 03:38:00,49.1,48.8,29.97,SSW,202,0.0,-999.0,99,-99.99,,,0.00,Acu-Link.com,2013-01-12 08:38:00,
2013-01-12 04:09:00,49.8,49.5,29.97,South,180,0.0,-999.0,99,-99.99,,,0.00,Acu-Link.com,2013-01-12 09:09:00,
2013-01-12 04:24:00,47.5,47.2,29.96,NNE,22,0.0,-999.0,99,-99.99,,,0.00,Acu-Link.com,2013-01-12 09:24:00,
2013-01-12 04:40:00,48.7,48.4,29.96,NNE,22,0.0,-999.0,99,-99.99,,,0.00,Acu-Link.com,2013-01-12 09:40:00,
2013-01-12 04:55:00,50.0,49.7,29.97,NE,45,0.0,-999.0,99,-99.99,,,0.00,Acu-Link.com,2013-01-12 09:55:00,
2013-01-12 05:10:00,48.9,48.6,29.97,NE,45,0.0,-999.0,99,-99.99,,,0.00,Acu-Link.com,2013-01-12 10:10:00,
2013-01-12 05:26:00,49.5,49.2,29.97,NE,45,0.0,-999.0,99,-99.99,,,0.00,Acu-Link.com,2013-01-12 10:26:00,
2013-01-12 05:41:00,49.6,49.3,29.97,NNE,22,0.0,-999.0,99,-99.99,,,0.00,Acu-Link.com,2013-01-12 10:41:00,
2013-01-12 05:56:00,49.8,49.5,29.97,NE,45,0.0,-999.0,99,-99.99,,,0.00,Acu-Link.com,2013-01-12 10:56:00,
2013-01-12 06:11:00,50.4,50.1,29.98,NE,45,0.0,-999.0,99,-99.99,,,0.00,Acu-Link.com,2013-01-12 11:11:00,
2013-01-12 06:26:00,51.3,51.0,29.98,WSW,247,1.7,-999.0,99,-99.99,,,0.00,Acu-Link.com,2013-01-12 11:26:00,
2013-01-12 06:42:00,51.3,51.0,29.98,SSW,202,1.7,-999.0,99,-99.99,,,0.00,Acu-Link.com,2013-01-12 11:42:00,
2013-01-12 06:57:00,52.2,51.9,29.99,SSW,202,3.7,-999.0,99,-99.99,,,0.00,Acu-Link.com,2013-01-12 11:57:00,
2013-01-12 07:13:00,52.0,51.7,29.99,WSW,247,2.7,-999.0,99,-99.99,,,0.00,Acu-Link.com,2013-01-12 12:13:00,
2013-01-12 07:28:00,52.2,51.9,29.99,WSW,247,3.7,-999.0,99,-99.99,,,0.00,Acu-Link.com,2013-01-12 12:28:00,
2013-01-12 07:43:00,53.6,53.3,29.99,West,270,4.2,-999.0,99,-99.99,,,0.00,Acu-Link.com,2013-01-12 12:43:00,
2013-01-12 07:59:00,53.8,53.5,29.99,West,270,4.7,-999.0,99,-99.99,,,0.00,Acu-Link.com,2013-01-12 12:59:00,
2013-01-12 08:14:00,54.9,54.6,29.99,SW,225,6.3,-999.0,99,-99.99,,,0.00,Acu-Link.com,2013-01-12 13:14:00,
2013-01-12 08:29:00,56.7,55.6,30.00,WSW,247,4.2,-999.0,96,-99.99,,,0.00,Acu-Link.com,2013-01-12 13:29:00,
2013-01-12 08:44:00,56.7,55.9,30.00,West,270,6.3,-999.0,97,-99.99,,,0.00,Acu-Link.com,2013-01-12 13:44:00,
2013-01-12 08:59:00,58.8,57.1,30.00,West,270,9.4,-999.0,94,-99.99,,,0.00,Acu-Link.com,2013-01-12 13:59:00,
2013-01-12 09:14:00,60.6,58.0,30.00,West,270,4.7,-999.0,91,-99.99,,,0.00,Acu-Link.com,2013-01-12 14:14:00,
2013-01-12 09:30:00,62.8,58.2,30.00,West,270,6.8,-999.0,85,-99.99,,,0.00,Acu-Link.com,2013-01-12 14:30:00,
2013-01-12 09:45:00,64.0,58.7,30.00,West,270,8.9,-999.0,83,-99.99,,,0.00,Acu-Link.com,2013-01-12 14:45:00,
2013-01-12 10:00:00,63.5,57.9,30.01,WNW,292,7.3,-999.0,82,-99.99,,,0.00,Acu-Link.com,2013-01-12 15:00:00,
2013-01-12 10:15:00,65.5,58.5,30.01,WSW,247,10.9,-999.0,78,-99.99,,,0.00,Acu-Link.com,2013-01-12 15:15:00,
2013-01-12 10:31:00,66.2,58.4,30.00,WSW,247,8.3,-999.0,76,-99.99,,,0.00,Acu-Link.com,2013-01-12 15:31:00,
2013-01-12 10:46:00,66.4,58.2,29.99,West,270,7.3,-999.0,75,-99.99,,,0.00,Acu-Link.com,2013-01-12 15:46:00,
2013-01-12 11:01:00,66.0,58.2,29.99,WSW,247,13.5,-999.0,76,-99.99,,,0.00,Acu-Link.com,2013-01-12 16:01:00,
2013-01-12 11:16:00,65.7,58.3,30.00,WSW,247,7.3,-999.0,77,-99.99,,,0.00,Acu-Link.com,2013-01-12 16:16:00,
2013-01-12 11:32:00,65.7,58.3,29.99,West,270,10.4,-999.0,77,-99.99,,,0.00,Acu-Link.com,2013-01-12 16:32:00,
2013-01-12 11:47:00,65.7,58.3,29.99,SW,225,8.3,-999.0,77,-99.99,,,0.00,Acu-Link.com,2013-01-12 16:47:00,
2013-01-12 12:02:00,64.9,58.2,29.99,West,270,7.3,-999.0,79,-99.99,,,0.00,Acu-Link.com,2013-01-12 17:02:00,
2013-01-12 12:18:00,64.8,58.1,29.98,WSW,247,7.8,-999.0,79,-99.99,,,0.00,Acu-Link.com,2013-01-12 17:18:00,
2013-01-12 12:33:00,66.6,59.2,29.98,WSW,247,7.8,-999.0,77,-99.99,,,0.00,Acu-Link.com,2013-01-12 17:33:00,
2013-01-12 12:48:00,66.0,58.2,29.98,West,270,7.3,-999.0,76,-99.99,,,0.00,Acu-Link.com,2013-01-12 17:48:00,
2013-01-12 13:04:00,66.2,58.4,29.97,WNW,292,7.3,-999.0,76,-99.99,,,0.00,Acu-Link.com,2013-01-12 18:04:00,
2013-01-12 13:19:00,66.9,58.0,29.96,West,270,9.9,-999.0,73,-99.99,,,0.00,Acu-Link.com,2013-01-12 18:19:00,
2013-01-12 13:34:00,67.3,57.2,29.96,West,270,7.8,-999.0,70,-99.99,,,0.00,Acu-Link.com,2013-01-12 18:34:00,
2013-01-12 13:49:00,69.4,58.4,29.94,WSW,247,8.9,-999.0,68,-99.99,,,0.00,Acu-Link.com,2013-01-12 18:49:00,
2013-01-12 14:05:00,68.7,56.9,29.95,WSW,247,8.9,-999.0,66,-99.99,,,0.00,Acu-Link.com,2013-01-12 19:05:00,
2013-01-12 14:20:00,69.1,57.3,29.95,West,270,6.8,-999.0,66,-99.99,,,0.00,Acu-Link.com,2013-01-12 19:20:00,
2013-01-12 14:35:00,68.2,56.4,29.95,WSW,247,9.4,-999.0,66,-99.99,,,0.00,Acu-Link.com,2013-01-12 19:35:00,
2013-01-12 14:51:00,69.3,57.0,29.95,WSW,247,8.3,-999.0,65,-99.99,,,0.00,Acu-Link.com,2013-01-12 19:51:00,
2013-01-12 15:06:00,69.8,56.6,29.94,West,270,8.9,-999.0,63,-99.99,,,0.00,Acu-Link.com,2013-01-12 20:06:00,
2013-01-12 15:21:00,69.3,56.6,29.95,West,270,5.8,-999.0,64,-99.99,,,0.00,Acu-Link.com,2013-01-12 20:21:00,
2013-01-12 15:37:00,68.5,56.3,29.95,WSW,247,2.7,-999.0,65,-99.99,,,0.00,Acu-Link.com,2013-01-12 20:37:00,
2013-01-12 15:52:00,69.8,56.6,29.95,West,270,4.2,-999.0,63,-99.99,,,0.00,Acu-Link.com,2013-01-12 20:52:00,
2013-01-12 16:07:00,69.4,56.7,29.95,West,270,2.7,-999.0,64,-99.99,,,0.00,Acu-Link.com,2013-01-12 21:07:00,
2013-01-12 16:22:00,69.8,57.1,29.96,SSW,202,2.7,-999.0,64,-99.99,,,0.00,Acu-Link.com,2013-01-12 21:22:00,
2013-01-12 16:37:00,66.7,58.9,29.97,SE,135,4.7,-999.0,76,-99.99,,,0.00,Acu-Link.com,2013-01-12 21:37:00,
2013-01-12 16:52:00,65.8,59.1,29.97,South,180,6.3,-999.0,79,-99.99,,,0.00,Acu-Link.com,2013-01-12 21:52:00,
2013-01-12 17:08:00,65.3,59.0,29.97,East,90,1.7,-999.0,80,-99.99,,,0.00,Acu-Link.com,2013-01-12 22:08:00,
2013-01-12 17:23:00,63.5,58.2,29.95,ENE,67,3.7,-999.0,83,-99.99,,,0.00,Acu-Link.com,2013-01-12 22:23:00,
2013-01-12 17:38:00,62.4,57.8,29.97,ESE,112,2.2,-999.0,85,-99.99,,,0.00,Acu-Link.com,2013-01-12 22:38:00,
2013-01-12 17:54:00,61.5,57.9,29.96,East,90,2.7,-999.0,88,-99.99,,,0.00,Acu-Link.com,2013-01-12 22:54:00,
2013-01-12 18:09:00,60.8,57.5,29.96,ENE,67,1.7,-999.0,89,-99.99,,,0.00,Acu-Link.com,2013-01-12 23:09:00,
2013-01-12 18:24:00,60.8,57.5,29.96,South,180,1.1,-999.0,89,-99.99,,,0.00,Acu-Link.com,2013-01-12 23:24:00,
2013-01-12 18:40:00,61.0,57.7,29.96,South,180,3.2,-999.0,89,-99.99,,,0.00,Acu-Link.com,2013-01-12 23:40:00,
2013-01-12 18:55:00,60.6,57.0,29.96,ENE,67,2.2,-999.0,88,-99.99,,,0.00,Acu-Link.com,2013-01-12 23:55:00,
2013-01-12 19:10:00,60.3,57.0,29.97,SSE,157,3.2,-999.0,89,-99.99,,,0.00,Acu-Link.com,2013-01-13 00:10:00,
2013-01-12 19:25:00,59.7,56.5,29.96,ENE,67,2.2,-999.0,89,-99.99,,,0.00,Acu-Link.com,2013-01-13 00:25:00,
2013-01-12 19:41:00,59.5,56.6,29.96,ENE,67,1.1,-999.0,90,-99.99,,,0.00,Acu-Link.com,2013-01-13 00:41:00,
2013-01-12 19:56:00,60.1,56.8,29.97,ENE,67,1.7,-999.0,89,-99.99,,,0.00,Acu-Link.com,2013-01-13 00:56:00,
2013-01-12 20:11:00,60.1,56.5,29.98,East,90,2.2,-999.0,88,-99.99,,,0.00,Acu-Link.com,2013-01-13 01:11:00,
2013-01-12 20:27:00,60.6,57.0,29.97,NNE,22,2.7,-999.0,88,-99.99,,,0.00,Acu-Link.com,2013-01-13 01:27:00,
2013-01-12 20:42:00,60.1,56.5,29.96,SSE,157,1.7,-999.0,88,-99.99,,,0.00,Acu-Link.com,2013-01-13 01:42:00,
2013-01-12 20:57:00,59.5,56.3,29.97,ENE,67,2.7,-999.0,89,-99.99,,,0.00,Acu-Link.com,2013-01-13 01:57:00,
2013-01-12 21:12:00,58.6,56.0,29.96,NE,45,2.2,-999.0,91,-99.99,,,0.00,Acu-Link.com,2013-01-13 02:12:00,
2013-01-12 21:28:00,59.0,56.4,29.96,ENE,67,2.2,-999.0,91,-99.99,,,0.00,Acu-Link.com,2013-01-13 02:28:00,
2013-01-12 21:43:00,58.3,56.0,29.96,NE,45,2.7,-999.0,92,-99.99,,,0.00,Acu-Link.com,2013-01-13 02:43:00,
2013-01-12 21:58:00,58.3,56.0,29.95,ENE,67,2.2,-999.0,92,-99.99,,,0.00,Acu-Link.com,2013-01-13 02:58:00,
2013-01-12 22:13:00,58.5,56.2,29.96,West,270,2.2,-999.0,92,-99.99,,,0.00,Acu-Link.com,2013-01-13 03:13:00,
2013-01-12 22:29:00,58.6,56.3,29.96,WSW,247,0.0,-999.0,92,-99.99,,,0.00,Acu-Link.com,2013-01-13 03:29:00,
2013-01-12 22:44:00,58.1,56.4,29.95,NE,45,1.7,-999.0,94,-99.99,,,0.00,Acu-Link.com,2013-01-13 03:44:00,
2013-01-12 22:59:00,58.6,56.9,29.95,SSW,202,4.7,-999.0,94,-99.99,,,0.00,Acu-Link.com,2013-01-13 03:59:00,
2013-01-12 23:15:00,58.6,57.2,29.96,SSE,157,4.2,-999.0,95,-99.99,,,0.00,Acu-Link.com,2013-01-13 04:15:00,
2013-01-12 23:30:00,57.2,55.8,29.96,ENE,67,2.2,-999.0,95,-99.99,,,0.00,Acu-Link.com,2013-01-13 04:30:00,
2013-01-12 23:45:00,56.5,55.9,29.95,ENE,67,1.1,-999.0,98,-99.99,,,0.00,Acu-Link.com,2013-01-13 04:45:00,